Airfield :
LOGIN :

Register | Disclaimer

   EN    FR    IT 

 










Legend :    VFR   Marginal VFR   IFR   Intensive IFR   Very Intensive IFR
Visi :
Ceiling :
>= 8 km
>= 3000ft
5 to 8 km
1000 to 3000 ft
1500m to 5 km
500 to 1000 ft
800 to 1500m
200 to 500 ft
< 800m
< 200 ft
Symbols :   Thunderstorms  Fog  Heavy snow  Heavy precipitations  Wind > 20 kt
SIGMETs :     Misc.  Thunderstorms  Icing  Turbulence  Mountain Waves  Volcanic Ashes







- Airport Elevation : 74 ft
- IATA code : MRS
- Download approach charts


LFML - Marseille / Marignane

CURRENT METAR :
  • 152100Z AUTO 10017KT 9999 4200 -RA FEW021/// BKN056/// BKN074/// ///TCU 18/14 Q1015 TEMPO VRB03KT 3000 RA FEW010CB BKN014

EXPIRED METARs :
  • 152030Z AUTO 10012KT 9999 BKN052 BKN064 BKN088 18/13 Q1014 TEMPO 3000 RA FEW010CB BKN014
  • 152000Z AUTO 12012KT 080V140 9999 FEW010/// BKN050/// BKN060/// ///CB 17/14 Q1014 TEMPO TSRA BECMG 11017G27KT
  • 151930Z AUTO 12011KT 9999 ///CB 18/14 Q1014 TEMPO TSRA BECMG 11017G27KT
  • 151900Z AUTO VRB03KT 9999 FEW047/// OVC056/// ///CB 18/14 Q1013 TEMPO TSRA BECMG 11017G27KT
  • 151830Z AUTO VRB03KT 9999 -RA ///CB 18/14 Q1013 TEMPO TSRA BECMG 11017G27KT

TAF TAF LFML
Valid from the 15 at 21:00 until the 17 at 03:00 UTC


152000Z 1521/1703 10013KT 9999 BKN050
TEMPO 1521/1606 VRB03KT 3000 RA FEW010CB BKN014
BECMG 1606/1609 VRB03KT
PROB40
TEMPO 1606/1618 4000 SHRA
ATIS : +33 4 42 31 15 15
No reported NOTAMs for that airfield.



MET'MAP, your aeronautical weather chart ! - Copyright ORBIFLY December 2007 - Disclaimer

ORBIFLY MET'MAP TEAM :

Programming & Development : Alexandra Zaïnal
Concept & Development : Baudouin d'Aumeries
Co-Development & Prog : Marc-Olivier Méhu
Technical & hardware support : Manuel Goepfert

Contact : metmap@orbifly.com




SOURCES & CREDITS :

   NOAA